sensor_id;sensor_type;location;lat;lon;timestamp;P1;durP1;ratioP1;P2;durP2;ratioP2
34212;SDS011;20477;51.390;8.102;2024-01-07T00:01:07;51.13;;;17.17;;
34212;SDS011;20477;51.390;8.102;2024-01-07T00:03:35;34.30;;;18.40;;
34212;SDS011;20477;51.390;8.102;2024-01-07T00:06:02;46.38;;;16.63;;
34212;SDS011;20477;51.390;8.102;2024-01-07T00:08:31;52.35;;;17.17;;
34212;SDS011;20477;51.390;8.102;2024-01-07T00:10:58;78.70;;;17.27;;
34212;SDS011;20477;51.390;8.102;2024-01-07T00:13:26;35.15;;;15.60;;
34212;SDS011;20477;51.390;8.102;2024-01-07T00:15:53;37.38;;;16.10;;
34212;SDS011;20477;51.390;8.102;2024-01-07T00:18:21;33.17;;;15.68;;
34212;SDS011;20477;51.390;8.102;2024-01-07T00:20:48;27.83;;;13.65;;
34212;SDS011;20477;51.390;8.102;2024-01-07T00:23:15;27.85;;;14.60;;
34212;SDS011;20477;51.390;8.102;2024-01-07T00:25:44;22.10;;;13.85;;
34212;SDS011;20477;51.390;8.102;2024-01-07T00:28:11;22.67;;;13.20;;
34212;SDS011;20477;51.390;8.102;2024-01-07T00:30:38;20.50;;;12.23;;
34212;SDS011;20477;51.390;8.102;2024-01-07T00:33:06;23.67;;;13.75;;
34212;SDS011;20477;51.390;8.102;2024-01-07T00:35:33;19.95;;;13.00;;
34212;SDS011;20477;51.390;8.102;2024-01-07T00:38:00;20.00;;;12.18;;
34212;SDS011;20477;51.390;8.102;2024-01-07T00:40:28;23.98;;;13.60;;
34212;SDS011;20477;51.390;8.102;2024-01-07T00:42:56;23.48;;;13.93;;
34212;SDS011;20477;51.390;8.102;2024-01-07T00:45:24;22.60;;;13.40;;
34212;SDS011;20477;51.390;8.102;2024-01-07T00:47:51;47.05;;;15.90;;
34212;SDS011;20477;51.390;8.102;2024-01-07T00:50:19;80.80;;;15.95;;
34212;SDS011;20477;51.390;8.102;2024-01-07T00:52:46;77.15;;;17.30;;
34212;SDS011;20477;51.390;8.102;2024-01-07T00:55:13;39.05;;;16.23;;
34212;SDS011;20477;51.390;8.102;2024-01-07T00:57:40;53.50;;;17.23;;
34212;SDS011;20477;51.390;8.102;2024-01-07T01:00:10;49.97;;;17.90;;
34212;SDS011;20477;51.390;8.102;2024-01-07T01:02:37;40.88;;;17.40;;
34212;SDS011;20477;51.390;8.102;2024-01-07T01:05:05;36.80;;;18.52;;
34212;SDS011;20477;51.390;8.102;2024-01-07T01:07:32;37.47;;;16.20;;
34212;SDS011;20477;51.390;8.102;2024-01-07T01:09:59;39.65;;;20.15;;
34212;SDS011;20477;51.390;8.102;2024-01-07T01:12:27;36.15;;;19.80;;
34212;SDS011;20477;51.390;8.102;2024-01-07T01:14:54;33.50;;;18.23;;
34212;SDS011;20477;51.390;8.102;2024-01-07T01:17:23;40.00;;;22.02;;
34212;SDS011;20477;51.390;8.102;2024-01-07T01:19:50;37.30;;;19.83;;
34212;SDS011;20477;51.390;8.102;2024-01-07T01:22:17;44.35;;;23.58;;
34212;SDS011;20477;51.390;8.102;2024-01-07T01:24:45;36.97;;;21.98;;
34212;SDS011;20477;51.390;8.102;2024-01-07T01:27:12;36.05;;;20.42;;
34212;SDS011;20477;51.390;8.102;2024-01-07T01:29:40;33.63;;;19.73;;
34212;SDS011;20477;51.390;8.102;2024-01-07T01:32:07;30.15;;;17.08;;
34212;SDS011;20477;51.390;8.102;2024-01-07T01:34:36;25.25;;;14.68;;
34212;SDS011;20477;51.390;8.102;2024-01-07T01:37:03;27.10;;;15.48;;
34212;SDS011;20477;51.390;8.102;2024-01-07T01:39:31;22.38;;;14.02;;
34212;SDS011;20477;51.390;8.102;2024-01-07T01:41:58;22.25;;;11.32;;
34212;SDS011;20477;51.390;8.102;2024-01-07T01:44:25;28.40;;;14.27;;
34212;SDS011;20477;51.390;8.102;2024-01-07T01:46:53;28.23;;;17.30;;
34212;SDS011;20477;51.390;8.102;2024-01-07T01:49:20;29.25;;;18.27;;
34212;SDS011;20477;51.390;8.102;2024-01-07T01:51:49;32.33;;;17.65;;
34212;SDS011;20477;51.390;8.102;2024-01-07T01:54:17;28.20;;;17.80;;
34212;SDS011;20477;51.390;8.102;2024-01-07T01:56:44;29.33;;;17.23;;
34212;SDS011;20477;51.390;8.102;2024-01-07T01:59:13;26.83;;;16.02;;
34212;SDS011;20477;51.390;8.102;2024-01-07T02:01:41;28.27;;;17.23;;
34212;SDS011;20477;51.390;8.102;2024-01-07T02:04:08;31.73;;;18.63;;
34212;SDS011;20477;51.390;8.102;2024-01-07T02:06:36;30.15;;;17.38;;
34212;SDS011;20477;51.390;8.102;2024-01-07T02:09:05;32.15;;;18.52;;
34212;SDS011;20477;51.390;8.102;2024-01-07T02:11:32;28.13;;;15.25;;
34212;SDS011;20477;51.390;8.102;2024-01-07T02:13:59;31.52;;;17.55;;
34212;SDS011;20477;51.390;8.102;2024-01-07T02:16:26;33.83;;;18.38;;
34212;SDS011;20477;51.390;8.102;2024-01-07T02:18:54;38.47;;;19.08;;
34212;SDS011;20477;51.390;8.102;2024-01-07T02:21:21;38.50;;;19.15;;
34212;SDS011;20477;51.390;8.102;2024-01-07T02:23:49;45.35;;;16.83;;
34212;SDS011;20477;51.390;8.102;2024-01-07T02:26:17;49.35;;;22.60;;
34212;SDS011;20477;51.390;8.102;2024-01-07T02:28:44;54.55;;;19.10;;
34212;SDS011;20477;51.390;8.102;2024-01-07T02:31:12;45.67;;;21.63;;
34212;SDS011;20477;51.390;8.102;2024-01-07T02:33:39;44.95;;;24.08;;
34212;SDS011;20477;51.390;8.102;2024-01-07T02:36:07;43.78;;;21.08;;
34212;SDS011;20477;51.390;8.102;2024-01-07T02:38:34;49.33;;;24.05;;
34212;SDS011;20477;51.390;8.102;2024-01-07T02:41:01;49.83;;;23.02;;
34212;SDS011;20477;51.390;8.102;2024-01-07T02:43:30;50.08;;;23.15;;
34212;SDS011;20477;51.390;8.102;2024-01-07T02:45:57;44.38;;;22.58;;
34212;SDS011;20477;51.390;8.102;2024-01-07T02:48:25;45.95;;;22.45;;
34212;SDS011;20477;51.390;8.102;2024-01-07T02:50:52;42.60;;;22.23;;
34212;SDS011;20477;51.390;8.102;2024-01-07T02:53:20;40.85;;;21.52;;
34212;SDS011;20477;51.390;8.102;2024-01-07T02:55:49;48.03;;;23.95;;
34212;SDS011;20477;51.390;8.102;2024-01-07T02:58:16;44.10;;;23.45;;
34212;SDS011;20477;51.390;8.102;2024-01-07T03:00:45;45.83;;;24.90;;
34212;SDS011;20477;51.390;8.102;2024-01-07T03:03:12;37.95;;;20.52;;
34212;SDS011;20477;51.390;8.102;2024-01-07T03:05:40;41.92;;;22.30;;
34212;SDS011;20477;51.390;8.102;2024-01-07T03:08:07;39.60;;;21.20;;
34212;SDS011;20477;51.390;8.102;2024-01-07T03:10:34;38.30;;;21.40;;
34212;SDS011;20477;51.390;8.102;2024-01-07T03:13:01;35.17;;;20.15;;
34212;SDS011;20477;51.390;8.102;2024-01-07T03:15:29;30.40;;;17.45;;
34212;SDS011;20477;51.390;8.102;2024-01-07T03:17:58;34.83;;;19.90;;
34212;SDS011;20477;51.390;8.102;2024-01-07T03:20:25;36.95;;;20.48;;
34212;SDS011;20477;51.390;8.102;2024-01-07T03:22:52;34.25;;;19.52;;
34212;SDS011;20477;51.390;8.102;2024-01-07T03:25:20;30.95;;;19.25;;
34212;SDS011;20477;51.390;8.102;2024-01-07T03:27:47;33.20;;;20.92;;
34212;SDS011;20477;51.390;8.102;2024-01-07T03:30:14;42.40;;;22.85;;
34212;SDS011;20477;51.390;8.102;2024-01-07T03:32:42;59.75;;;23.60;;
34212;SDS011;20477;51.390;8.102;2024-01-07T03:35:10;58.30;;;23.05;;
34212;SDS011;20477;51.390;8.102;2024-01-07T03:37:38;46.38;;;23.25;;
34212;SDS011;20477;51.390;8.102;2024-01-07T03:40:09;41.75;;;22.40;;
34212;SDS011;20477;51.390;8.102;2024-01-07T03:42:36;43.55;;;25.05;;
34212;SDS011;20477;51.390;8.102;2024-01-07T03:45:04;48.33;;;23.40;;
34212;SDS011;20477;51.390;8.102;2024-01-07T03:47:31;44.90;;;20.30;;
34212;SDS011;20477;51.390;8.102;2024-01-07T03:49:59;60.05;;;25.15;;
34212;SDS011;20477;51.390;8.102;2024-01-07T03:52:27;51.92;;;24.92;;
34212;SDS011;20477;51.390;8.102;2024-01-07T03:54:55;45.80;;;21.85;;
34212;SDS011;20477;51.390;8.102;2024-01-07T03:57:22;44.50;;;21.23;;
34212;SDS011;20477;51.390;8.102;2024-01-07T03:59:49;39.60;;;20.65;;
34212;SDS011;20477;51.390;8.102;2024-01-07T04:02:17;50.47;;;22.08;;
34212;SDS011;20477;51.390;8.102;2024-01-07T04:04:44;40.60;;;18.65;;
34212;SDS011;20477;51.390;8.102;2024-01-07T04:07:11;46.03;;;22.58;;
34212;SDS011;20477;51.390;8.102;2024-01-07T04:09:42;47.17;;;22.20;;
34212;SDS011;20477;51.390;8.102;2024-01-07T04:12:09;47.10;;;22.80;;
34212;SDS011;20477;51.390;8.102;2024-01-07T04:14:37;43.13;;;22.63;;
34212;SDS011;20477;51.390;8.102;2024-01-07T04:17:04;36.92;;;18.60;;
34212;SDS011;20477;51.390;8.102;2024-01-07T04:19:31;44.50;;;21.88;;
34212;SDS011;20477;51.390;8.102;2024-01-07T04:21:58;45.95;;;22.60;;
34212;SDS011;20477;51.390;8.102;2024-01-07T04:24:26;49.28;;;25.08;;
34212;SDS011;20477;51.390;8.102;2024-01-07T04:26:54;45.80;;;24.35;;
34212;SDS011;20477;51.390;8.102;2024-01-07T04:29:22;51.40;;;26.08;;
34212;SDS011;20477;51.390;8.102;2024-01-07T04:31:49;41.60;;;23.38;;
34212;SDS011;20477;51.390;8.102;2024-01-07T04:34:16;49.03;;;24.40;;
34212;SDS011;20477;51.390;8.102;2024-01-07T04:36:44;45.13;;;24.50;;
34212;SDS011;20477;51.390;8.102;2024-01-07T04:39:11;44.80;;;24.70;;
34212;SDS011;20477;51.390;8.102;2024-01-07T04:41:38;48.95;;;25.35;;
34212;SDS011;20477;51.390;8.102;2024-01-07T04:44:10;41.13;;;22.50;;
34212;SDS011;20477;51.390;8.102;2024-01-07T04:46:37;48.10;;;27.33;;
34212;SDS011;20477;51.390;8.102;2024-01-07T04:49:05;55.03;;;27.65;;
34212;SDS011;20477;51.390;8.102;2024-01-07T04:51:32;40.55;;;22.75;;
34212;SDS011;20477;51.390;8.102;2024-01-07T04:54:00;35.33;;;18.85;;
34212;SDS011;20477;51.390;8.102;2024-01-07T04:56:27;45.70;;;25.75;;
34212;SDS011;20477;51.390;8.102;2024-01-07T04:58:54;41.63;;;19.85;;
34212;SDS011;20477;51.390;8.102;2024-01-07T05:01:23;40.28;;;21.63;;
34212;SDS011;20477;51.390;8.102;2024-01-07T05:03:51;45.63;;;25.25;;
34212;SDS011;20477;51.390;8.102;2024-01-07T05:06:18;33.10;;;18.17;;
34212;SDS011;20477;51.390;8.102;2024-01-07T05:08:45;38.90;;;21.30;;
34212;SDS011;20477;51.390;8.102;2024-01-07T05:11:13;47.10;;;23.30;;
34212;SDS011;20477;51.390;8.102;2024-01-07T05:13:40;42.10;;;17.27;;
34212;SDS011;20477;51.390;8.102;2024-01-07T05:16:07;47.30;;;24.30;;
34212;SDS011;20477;51.390;8.102;2024-01-07T05:18:36;48.80;;;25.25;;
34212;SDS011;20477;51.390;8.102;2024-01-07T05:21:05;52.80;;;27.17;;
34212;SDS011;20477;51.390;8.102;2024-01-07T05:23:32;54.95;;;27.27;;
34212;SDS011;20477;51.390;8.102;2024-01-07T05:26:00;55.80;;;26.27;;
34212;SDS011;20477;51.390;8.102;2024-01-07T05:28:27;56.83;;;28.05;;
34212;SDS011;20477;51.390;8.102;2024-01-07T05:30:54;49.67;;;25.35;;
34212;SDS011;20477;51.390;8.102;2024-01-07T05:33:22;50.90;;;27.33;;
34212;SDS011;20477;51.390;8.102;2024-01-07T05:35:50;59.42;;;27.08;;
34212;SDS011;20477;51.390;8.102;2024-01-07T05:38:17;54.38;;;28.13;;
34212;SDS011;20477;51.390;8.102;2024-01-07T05:40:45;60.08;;;28.10;;
34212;SDS011;20477;51.390;8.102;2024-01-07T05:43:12;59.13;;;27.50;;
34212;SDS011;20477;51.390;8.102;2024-01-07T05:45:39;42.83;;;22.02;;
34212;SDS011;20477;51.390;8.102;2024-01-07T05:48:07;49.88;;;25.90;;
34212;SDS011;20477;51.390;8.102;2024-01-07T05:50:34;52.85;;;25.67;;
34212;SDS011;20477;51.390;8.102;2024-01-07T05:53:03;46.67;;;24.60;;
34212;SDS011;20477;51.390;8.102;2024-01-07T05:55:30;50.65;;;23.95;;
34212;SDS011;20477;51.390;8.102;2024-01-07T05:57:57;49.58;;;22.40;;
34212;SDS011;20477;51.390;8.102;2024-01-07T06:00:25;52.03;;;25.23;;
34212;SDS011;20477;51.390;8.102;2024-01-07T06:02:52;56.40;;;27.80;;
34212;SDS011;20477;51.390;8.102;2024-01-07T06:05:19;49.67;;;26.13;;
34212;SDS011;20477;51.390;8.102;2024-01-07T06:07:47;66.00;;;28.77;;
34212;SDS011;20477;51.390;8.102;2024-01-07T06:10:15;54.83;;;25.33;;
34212;SDS011;20477;51.390;8.102;2024-01-07T06:12:43;58.83;;;27.85;;
34212;SDS011;20477;51.390;8.102;2024-01-07T06:15:11;71.80;;;31.08;;
34212;SDS011;20477;51.390;8.102;2024-01-07T06:17:38;60.58;;;28.02;;
34212;SDS011;20477;51.390;8.102;2024-01-07T06:20:06;65.80;;;29.77;;
34212;SDS011;20477;51.390;8.102;2024-01-07T06:22:33;62.55;;;28.48;;
34212;SDS011;20477;51.390;8.102;2024-01-07T06:25:01;73.78;;;32.45;;
34212;SDS011;20477;51.390;8.102;2024-01-07T06:27:33;60.88;;;28.65;;
34212;SDS011;20477;51.390;8.102;2024-01-07T06:30:00;70.93;;;31.85;;
34212;SDS011;20477;51.390;8.102;2024-01-07T06:32:28;61.67;;;26.40;;
34212;SDS011;20477;51.390;8.102;2024-01-07T06:34:55;50.25;;;22.90;;
34212;SDS011;20477;51.390;8.102;2024-01-07T06:37:22;61.70;;;27.70;;
34212;SDS011;20477;51.390;8.102;2024-01-07T06:39:50;51.72;;;23.95;;
34212;SDS011;20477;51.390;8.102;2024-01-07T06:42:17;54.55;;;24.50;;
34212;SDS011;20477;51.390;8.102;2024-01-07T06:44:46;56.88;;;25.17;;
34212;SDS011;20477;51.390;8.102;2024-01-07T06:47:13;48.00;;;26.13;;
34212;SDS011;20477;51.390;8.102;2024-01-07T06:49:40;53.65;;;27.17;;
34212;SDS011;20477;51.390;8.102;2024-01-07T06:52:08;41.47;;;24.25;;
34212;SDS011;20477;51.390;8.102;2024-01-07T06:54:35;47.00;;;24.90;;
34212;SDS011;20477;51.390;8.102;2024-01-07T06:57:02;40.38;;;23.10;;
34212;SDS011;20477;51.390;8.102;2024-01-07T06:59:30;44.80;;;23.02;;
34212;SDS011;20477;51.390;8.102;2024-01-07T07:01:58;43.05;;;22.05;;
34212;SDS011;20477;51.390;8.102;2024-01-07T07:04:26;45.00;;;24.80;;
34212;SDS011;20477;51.390;8.102;2024-01-07T07:06:53;41.92;;;22.02;;
34212;SDS011;20477;51.390;8.102;2024-01-07T07:09:20;37.22;;;21.05;;
34212;SDS011;20477;51.390;8.102;2024-01-07T07:11:48;34.97;;;15.75;;
34212;SDS011;20477;51.390;8.102;2024-01-07T07:14:15;29.52;;;14.10;;
34212;SDS011;20477;51.390;8.102;2024-01-07T07:16:42;37.55;;;18.23;;
34212;SDS011;20477;51.390;8.102;2024-01-07T07:19:11;32.20;;;13.98;;
34212;SDS011;20477;51.390;8.102;2024-01-07T07:21:38;49.90;;;23.77;;
34212;SDS011;20477;51.390;8.102;2024-01-07T07:24:06;60.92;;;25.38;;
34212;SDS011;20477;51.390;8.102;2024-01-07T07:26:33;54.28;;;21.83;;
34212;SDS011;20477;51.390;8.102;2024-01-07T07:29:00;65.35;;;25.73;;
34212;SDS011;20477;51.390;8.102;2024-01-07T07:31:27;50.30;;;18.02;;
34212;SDS011;20477;51.390;8.102;2024-01-07T07:33:55;54.15;;;21.80;;
34212;SDS011;20477;51.390;8.102;2024-01-07T07:36:24;83.07;;;25.50;;
34212;SDS011;20477;51.390;8.102;2024-01-07T07:38:51;85.03;;;26.02;;
34212;SDS011;20477;51.390;8.102;2024-01-07T07:41:18;64.95;;;24.92;;
34212;SDS011;20477;51.390;8.102;2024-01-07T07:43:46;82.88;;;30.10;;
34212;SDS011;20477;51.390;8.102;2024-01-07T07:46:13;66.22;;;23.05;;
34212;SDS011;20477;51.390;8.102;2024-01-07T07:48:40;91.93;;;29.52;;
34212;SDS011;20477;51.390;8.102;2024-01-07T07:51:08;77.18;;;31.63;;
34212;SDS011;20477;51.390;8.102;2024-01-07T07:53:38;52.50;;;19.55;;
34212;SDS011;20477;51.390;8.102;2024-01-07T07:56:06;75.97;;;23.65;;
34212;SDS011;20477;51.390;8.102;2024-01-07T07:58:33;88.00;;;29.58;;
34212;SDS011;20477;51.390;8.102;2024-01-07T08:01:00;86.20;;;31.20;;
34212;SDS011;20477;51.390;8.102;2024-01-07T08:03:28;69.15;;;25.55;;
34212;SDS011;20477;51.390;8.102;2024-01-07T08:05:55;90.38;;;31.98;;
34212;SDS011;20477;51.390;8.102;2024-01-07T08:08:23;105.05;;;34.30;;
34212;SDS011;20477;51.390;8.102;2024-01-07T08:10:51;91.03;;;31.85;;
34212;SDS011;20477;51.390;8.102;2024-01-07T08:13:18;106.18;;;40.72;;
34212;SDS011;20477;51.390;8.102;2024-01-07T08:15:46;108.65;;;37.92;;
34212;SDS011;20477;51.390;8.102;2024-01-07T08:18:13;110.45;;;37.55;;
34212;SDS011;20477;51.390;8.102;2024-01-07T08:20:40;92.80;;;34.13;;
34212;SDS011;20477;51.390;8.102;2024-01-07T08:23:08;106.38;;;38.60;;
34212;SDS011;20477;51.390;8.102;2024-01-07T08:25:35;106.30;;;40.78;;
34212;SDS011;20477;51.390;8.102;2024-01-07T08:28:04;104.63;;;40.00;;
34212;SDS011;20477;51.390;8.102;2024-01-07T08:30:31;95.57;;;30.67;;
34212;SDS011;20477;51.390;8.102;2024-01-07T08:32:59;96.78;;;38.22;;
34212;SDS011;20477;51.390;8.102;2024-01-07T08:35:26;99.13;;;38.03;;
34212;SDS011;20477;51.390;8.102;2024-01-07T08:37:53;113.05;;;39.90;;
34212;SDS011;20477;51.390;8.102;2024-01-07T08:40:21;68.10;;;24.85;;
34212;SDS011;20477;51.390;8.102;2024-01-07T08:42:48;102.90;;;39.00;;
34212;SDS011;20477;51.390;8.102;2024-01-07T08:45:17;102.90;;;38.13;;
34212;SDS011;20477;51.390;8.102;2024-01-07T08:47:44;93.55;;;35.25;;
34212;SDS011;20477;51.390;8.102;2024-01-07T08:50:12;88.18;;;32.00;;
34212;SDS011;20477;51.390;8.102;2024-01-07T08:52:39;81.88;;;32.75;;
34212;SDS011;20477;51.390;8.102;2024-01-07T08:55:07;98.53;;;36.50;;
34212;SDS011;20477;51.390;8.102;2024-01-07T08:57:35;65.68;;;25.23;;
34212;SDS011;20477;51.390;8.102;2024-01-07T09:00:03;61.90;;;27.25;;
34212;SDS011;20477;51.390;8.102;2024-01-07T09:02:32;70.32;;;25.75;;
34212;SDS011;20477;51.390;8.102;2024-01-07T09:04:59;78.95;;;29.98;;
34212;SDS011;20477;51.390;8.102;2024-01-07T09:07:27;70.18;;;29.17;;
34212;SDS011;20477;51.390;8.102;2024-01-07T09:09:54;57.78;;;24.00;;
34212;SDS011;20477;51.390;8.102;2024-01-07T09:12:22;59.10;;;25.33;;
34212;SDS011;20477;51.390;8.102;2024-01-07T09:14:49;67.30;;;25.73;;
34212;SDS011;20477;51.390;8.102;2024-01-07T09:17:17;69.82;;;26.98;;
34212;SDS011;20477;51.390;8.102;2024-01-07T09:19:46;65.75;;;28.15;;
34212;SDS011;20477;51.390;8.102;2024-01-07T09:22:14;56.30;;;25.23;;
34212;SDS011;20477;51.390;8.102;2024-01-07T09:24:41;62.30;;;25.98;;
34212;SDS011;20477;51.390;8.102;2024-01-07T09:27:09;41.72;;;21.10;;
34212;SDS011;20477;51.390;8.102;2024-01-07T09:29:36;41.50;;;20.05;;
34212;SDS011;20477;51.390;8.102;2024-01-07T09:32:04;63.10;;;27.08;;
34212;SDS011;20477;51.390;8.102;2024-01-07T09:34:32;51.50;;;23.35;;
34212;SDS011;20477;51.390;8.102;2024-01-07T09:37:01;38.47;;;17.75;;
34212;SDS011;20477;51.390;8.102;2024-01-07T09:39:28;53.80;;;23.50;;
34212;SDS011;20477;51.390;8.102;2024-01-07T09:41:56;55.13;;;21.52;;
34212;SDS011;20477;51.390;8.102;2024-01-07T09:44:23;65.75;;;26.58;;
34212;SDS011;20477;51.390;8.102;2024-01-07T09:46:51;45.35;;;21.23;;
34212;SDS011;20477;51.390;8.102;2024-01-07T09:49:19;49.10;;;19.45;;
34212;SDS011;20477;51.390;8.102;2024-01-07T09:51:46;35.88;;;15.45;;
34212;SDS011;20477;51.390;8.102;2024-01-07T09:54:16;43.08;;;16.35;;
34212;SDS011;20477;51.390;8.102;2024-01-07T09:56:48;44.13;;;18.35;;
34212;SDS011;20477;51.390;8.102;2024-01-07T09:59:17;51.60;;;22.48;;
34212;SDS011;20477;51.390;8.102;2024-01-07T10:01:45;51.33;;;21.25;;
34212;SDS011;20477;51.390;8.102;2024-01-07T10:04:16;55.65;;;21.83;;
34212;SDS011;20477;51.390;8.102;2024-01-07T10:06:44;41.08;;;19.05;;
34212;SDS011;20477;51.390;8.102;2024-01-07T10:09:11;40.55;;;18.30;;
34212;SDS011;20477;51.390;8.102;2024-01-07T10:11:40;31.58;;;14.57;;
34212;SDS011;20477;51.390;8.102;2024-01-07T10:14:08;35.08;;;15.48;;
34212;SDS011;20477;51.390;8.102;2024-01-07T10:16:35;44.78;;;20.17;;
34212;SDS011;20477;51.390;8.102;2024-01-07T10:19:02;33.88;;;16.35;;
34212;SDS011;20477;51.390;8.102;2024-01-07T10:21:30;40.13;;;18.05;;
34212;SDS011;20477;51.390;8.102;2024-01-07T10:24:07;30.55;;;13.77;;
34212;SDS011;20477;51.390;8.102;2024-01-07T10:26:34;40.13;;;18.65;;
34212;SDS011;20477;51.390;8.102;2024-01-07T10:29:06;30.27;;;12.77;;
34212;SDS011;20477;51.390;8.102;2024-01-07T10:31:33;34.28;;;12.93;;
34212;SDS011;20477;51.390;8.102;2024-01-07T10:34:01;31.63;;;15.18;;
34212;SDS011;20477;51.390;8.102;2024-01-07T10:36:28;26.00;;;12.70;;
34212;SDS011;20477;51.390;8.102;2024-01-07T10:38:56;39.83;;;13.18;;
34212;SDS011;20477;51.390;8.102;2024-01-07T10:41:24;23.63;;;12.73;;
34212;SDS011;20477;51.390;8.102;2024-01-07T10:43:52;29.63;;;14.52;;
34212;SDS011;20477;51.390;8.102;2024-01-07T10:46:21;29.90;;;13.73;;
34212;SDS011;20477;51.390;8.102;2024-01-07T10:48:50;22.40;;;12.45;;
34212;SDS011;20477;51.390;8.102;2024-01-07T10:51:18;19.15;;;8.85;;
34212;SDS011;20477;51.390;8.102;2024-01-07T10:53:49;20.30;;;8.75;;
34212;SDS011;20477;51.390;8.102;2024-01-07T10:56:18;11.57;;;5.22;;
34212;SDS011;20477;51.390;8.102;2024-01-07T10:58:49;13.30;;;6.90;;
34212;SDS011;20477;51.390;8.102;2024-01-07T11:01:17;11.35;;;6.95;;
34212;SDS011;20477;51.390;8.102;2024-01-07T11:03:48;12.68;;;6.97;;
34212;SDS011;20477;51.390;8.102;2024-01-07T11:06:19;11.52;;;6.97;;
34212;SDS011;20477;51.390;8.102;2024-01-07T11:08:50;10.00;;;5.72;;
34212;SDS011;20477;51.390;8.102;2024-01-07T11:11:20;11.13;;;6.30;;
34212;SDS011;20477;51.390;8.102;2024-01-07T11:13:49;8.10;;;5.55;;
34212;SDS011;20477;51.390;8.102;2024-01-07T11:16:40;8.63;;;5.65;;
34212;SDS011;20477;51.390;8.102;2024-01-07T11:19:08;7.20;;;4.30;;
34212;SDS011;20477;51.390;8.102;2024-01-07T11:21:35;10.35;;;4.93;;
34212;SDS011;20477;51.390;8.102;2024-01-07T11:24:03;8.68;;;4.68;;
34212;SDS011;20477;51.390;8.102;2024-01-07T11:26:31;8.85;;;5.15;;
34212;SDS011;20477;51.390;8.102;2024-01-07T11:28:59;8.52;;;4.93;;
34212;SDS011;20477;51.390;8.102;2024-01-07T11:37:02;5.43;;;3.65;;
34212;SDS011;20477;51.390;8.102;2024-01-07T11:39:33;6.30;;;3.80;;
34212;SDS011;20477;51.390;8.102;2024-01-07T11:42:01;8.40;;;4.22;;
34212;SDS011;20477;51.390;8.102;2024-01-07T11:44:33;8.73;;;4.80;;
34212;SDS011;20477;51.390;8.102;2024-01-07T11:47:01;9.02;;;4.45;;
34212;SDS011;20477;51.390;8.102;2024-01-07T11:49:28;6.72;;;4.60;;
34212;SDS011;20477;51.390;8.102;2024-01-07T11:51:55;5.13;;;4.13;;
34212;SDS011;20477;51.390;8.102;2024-01-07T11:54:25;7.15;;;3.35;;
34212;SDS011;20477;51.390;8.102;2024-01-07T11:56:52;7.60;;;4.97;;
34212;SDS011;20477;51.390;8.102;2024-01-07T11:59:20;7.95;;;3.97;;
34212;SDS011;20477;51.390;8.102;2024-01-07T12:01:48;6.57;;;2.97;;
34212;SDS011;20477;51.390;8.102;2024-01-07T12:04:15;5.82;;;2.90;;
34212;SDS011;20477;51.390;8.102;2024-01-07T12:06:43;7.60;;;3.58;;
34212;SDS011;20477;51.390;8.102;2024-01-07T12:09:11;6.88;;;4.15;;
34212;SDS011;20477;51.390;8.102;2024-01-07T12:11:40;7.57;;;4.05;;
34212;SDS011;20477;51.390;8.102;2024-01-07T12:14:11;5.65;;;3.67;;
34212;SDS011;20477;51.390;8.102;2024-01-07T12:16:38;9.95;;;3.92;;
34212;SDS011;20477;51.390;8.102;2024-01-07T12:19:06;4.97;;;3.83;;
34212;SDS011;20477;51.390;8.102;2024-01-07T12:21:35;6.00;;;3.40;;
34212;SDS011;20477;51.390;8.102;2024-01-07T12:24:03;5.28;;;3.55;;
34212;SDS011;20477;51.390;8.102;2024-01-07T12:26:30;5.70;;;3.78;;
34212;SDS011;20477;51.390;8.102;2024-01-07T12:29:00;7.25;;;3.60;;
34212;SDS011;20477;51.390;8.102;2024-01-07T12:31:27;7.28;;;3.85;;
34212;SDS011;20477;51.390;8.102;2024-01-07T12:33:55;8.93;;;3.88;;
34212;SDS011;20477;51.390;8.102;2024-01-07T12:36:23;5.97;;;3.80;;
34212;SDS011;20477;51.390;8.102;2024-01-07T12:38:51;5.10;;;3.22;;
34212;SDS011;20477;51.390;8.102;2024-01-07T12:41:18;5.28;;;3.28;;
34212;SDS011;20477;51.390;8.102;2024-01-07T12:43:46;6.50;;;4.70;;
34212;SDS011;20477;51.390;8.102;2024-01-07T12:46:15;7.75;;;3.50;;
34212;SDS011;20477;51.390;8.102;2024-01-07T12:48:42;6.50;;;3.63;;
34212;SDS011;20477;51.390;8.102;2024-01-07T12:51:10;6.95;;;3.90;;
34212;SDS011;20477;51.390;8.102;2024-01-07T12:53:37;6.35;;;3.50;;
34212;SDS011;20477;51.390;8.102;2024-01-07T12:56:04;6.18;;;3.47;;
34212;SDS011;20477;51.390;8.102;2024-01-07T12:58:32;5.72;;;3.13;;
34212;SDS011;20477;51.390;8.102;2024-01-07T13:00:59;7.85;;;3.65;;
34212;SDS011;20477;51.390;8.102;2024-01-07T13:03:28;3.15;;;2.17;;
34212;SDS011;20477;51.390;8.102;2024-01-07T13:05:55;5.15;;;3.05;;
34212;SDS011;20477;51.390;8.102;2024-01-07T13:08:23;3.35;;;2.50;;
34212;SDS011;20477;51.390;8.102;2024-01-07T13:10:50;5.38;;;3.60;;
34212;SDS011;20477;51.390;8.102;2024-01-07T13:13:17;4.15;;;3.15;;
34212;SDS011;20477;51.390;8.102;2024-01-07T13:15:45;5.70;;;3.63;;
34212;SDS011;20477;51.390;8.102;2024-01-07T13:18:12;3.42;;;2.50;;
34212;SDS011;20477;51.390;8.102;2024-01-07T13:20:41;4.50;;;3.00;;
34212;SDS011;20477;51.390;8.102;2024-01-07T13:23:08;3.97;;;3.30;;
34212;SDS011;20477;51.390;8.102;2024-01-07T13:25:35;7.13;;;2.50;;
34212;SDS011;20477;51.390;8.102;2024-01-07T13:28:03;5.97;;;2.90;;
34212;SDS011;20477;51.390;8.102;2024-01-07T13:30:30;4.60;;;2.90;;
34212;SDS011;20477;51.390;8.102;2024-01-07T13:32:58;11.77;;;3.00;;
34212;SDS011;20477;51.390;8.102;2024-01-07T13:35:29;7.05;;;3.92;;
34212;SDS011;20477;51.390;8.102;2024-01-07T13:37:58;4.47;;;3.10;;
34212;SDS011;20477;51.390;8.102;2024-01-07T13:40:25;7.28;;;3.38;;
34212;SDS011;20477;51.390;8.102;2024-01-07T13:42:52;4.70;;;3.22;;
34212;SDS011;20477;51.390;8.102;2024-01-07T13:45:20;4.85;;;2.95;;
34212;SDS011;20477;51.390;8.102;2024-01-07T13:47:47;3.45;;;2.13;;
34212;SDS011;20477;51.390;8.102;2024-01-07T13:50:15;5.13;;;2.95;;
34212;SDS011;20477;51.390;8.102;2024-01-07T13:52:42;7.30;;;3.55;;
34212;SDS011;20477;51.390;8.102;2024-01-07T13:55:11;6.03;;;4.30;;
34212;SDS011;20477;51.390;8.102;2024-01-07T13:57:38;9.82;;;5.13;;
34212;SDS011;20477;51.390;8.102;2024-01-07T14:00:06;5.53;;;3.38;;
34212;SDS011;20477;51.390;8.102;2024-01-07T14:02:34;6.38;;;3.00;;
34212;SDS011;20477;51.390;8.102;2024-01-07T14:05:01;3.65;;;2.58;;
34212;SDS011;20477;51.390;8.102;2024-01-07T14:07:28;4.07;;;2.60;;
34212;SDS011;20477;51.390;8.102;2024-01-07T14:09:56;4.30;;;2.83;;
34212;SDS011;20477;51.390;8.102;2024-01-07T14:12:24;4.35;;;2.90;;
34212;SDS011;20477;51.390;8.102;2024-01-07T14:14:52;6.47;;;3.83;;
34212;SDS011;20477;51.390;8.102;2024-01-07T14:17:19;4.32;;;2.72;;
34212;SDS011;20477;51.390;8.102;2024-01-07T14:19:46;4.72;;;2.90;;
34212;SDS011;20477;51.390;8.102;2024-01-07T14:22:14;5.07;;;3.15;;
34212;SDS011;20477;51.390;8.102;2024-01-07T14:24:41;4.03;;;2.67;;
34212;SDS011;20477;51.390;8.102;2024-01-07T14:27:08;7.00;;;2.92;;
34212;SDS011;20477;51.390;8.102;2024-01-07T14:29:37;3.53;;;2.65;;
34212;SDS011;20477;51.390;8.102;2024-01-07T14:32:05;4.03;;;2.65;;
34212;SDS011;20477;51.390;8.102;2024-01-07T14:34:37;5.35;;;3.05;;
34212;SDS011;20477;51.390;8.102;2024-01-07T14:37:04;4.93;;;3.47;;